Time;durP1;ratioP1;P1;durP2;ratioP2;P2;SDS_P1;SDS_P2;PMS_P1;PMS_P2;Temp;Humidity;BMP_temperature;BMP_pressure;BME280_temperature;BME280_humidity;BME280_pressure;Samples;Min_cycle;Max_cycle;Signal;HPM_P1;HPM_P2
2021/11/28 00:00:21;;;;;;;14.48;9.98;;;;;;;;;;5113393;28;20020;-63
2021/11/28 00:02:48;;;;;;;14.07;9.70;;;;;;;;;;5091658;28;20028;-70
2021/11/28 00:05:16;;;;;;;14.55;9.60;;;;;;;;;;5092296;28;20040;-63
2021/11/28 00:07:52;;;;;;;15.63;10.68;;;;;;;;;;5091997;28;20383;-62
2021/11/28 00:15:18;;;;;;;14.35;9.43;;;;;;;;;;5093189;28;20035;-64
2021/11/28 00:17:44;;;;;;;13.18;9.45;;;;;;;;;;5074675;28;20016;-63
2021/11/28 00:20:12;;;;;;;13.73;9.98;;;;;;;;;;5092939;28;20106;-63
2021/11/28 00:22:39;;;;;;;15.60;10.20;;;;;;;;;;5092935;28;20024;-63
2021/11/28 00:25:07;;;;;;;14.88;10.30;;;;;;;;;;5092589;28;20085;-68
2021/11/28 00:27:33;;;;;;;15.50;10.60;;;;;;;;;;5092558;28;20102;-70
2021/11/28 00:29:59;;;;;;;16.08;10.45;;;;;;;;;;5092568;28;20028;-63
2021/11/28 00:32:25;;;;;;;13.48;9.45;;;;;;;;;;5092639;28;20025;-64
2021/11/28 00:34:52;;;;;;;15.40;10.35;;;;;;;;;;5092406;28;20050;-66
2021/11/28 00:37:18;;;;;;;14.57;9.95;;;;;;;;;;5092359;28;20448;-63
2021/11/28 00:39:47;;;;;;;15.15;10.02;;;;;;;;;;5092334;28;20024;-63
2021/11/28 00:42:13;;;;;;;17.33;10.65;;;;;;;;;;5092385;28;20027;-68
2021/11/28 00:44:39;;;;;;;17.85;11.23;;;;;;;;;;5092081;28;20040;-71
2021/11/28 00:47:05;;;;;;;15.40;9.77;;;;;;;;;;5092405;28;20036;-64
2021/11/28 00:49:34;;;;;;;17.23;10.27;;;;;;;;;;5092383;28;20476;-63
2021/11/28 00:52:00;;;;;;;18.00;11.00;;;;;;;;;;5092184;28;20101;-63
2021/11/28 00:54:27;;;;;;;16.45;11.05;;;;;;;;;;5073958;28;20414;-64
2021/11/28 00:56:53;;;;;;;15.05;10.30;;;;;;;;;;5092188;28;20570;-75
2021/11/28 00:59:19;;;;;;;16.67;11.20;;;;;;;;;;5092159;28;20060;-64
2021/11/28 01:01:45;;;;;;;16.52;10.85;;;;;;;;;;5092212;28;20479;-64
2021/11/28 01:04:11;;;;;;;16.45;11.73;;;;;;;;;;5092072;28;20111;-68
2021/11/28 01:06:38;;;;;;;16.95;10.77;;;;;;;;;;5092129;28;20586;-65
2021/11/28 01:09:08;;;;;;;16.58;11.10;;;;;;;;;;5092081;28;20475;-64
2021/11/28 01:11:35;;;;;;;16.85;11.13;;;;;;;;;;5091963;28;20036;-72
2021/11/28 01:14:01;;;;;;;17.45;10.60;;;;;;;;;;5092035;28;20099;-63
2021/11/28 01:16:27;;;;;;;15.93;11.13;;;;;;;;;;5092017;28;20031;-63
2021/11/28 01:18:53;;;;;;;17.60;11.43;;;;;;;;;;5091974;28;20356;-63
2021/11/28 01:21:20;;;;;;;16.50;10.90;;;;;;;;;;5092000;28;20106;-63
2021/11/28 01:23:46;;;;;;;18.15;11.93;;;;;;;;;;5091532;28;20027;-67
2021/11/28 01:26:13;;;;;;;16.27;10.88;;;;;;;;;;5091728;28;20055;-64
2021/11/28 01:28:39;;;;;;;19.20;10.30;;;;;;;;;;5091800;28;20632;-63
2021/11/28 01:31:06;;;;;;;18.33;11.25;;;;;;;;;;5091699;28;20036;-63
2021/11/28 01:33:32;;;;;;;17.50;11.15;;;;;;;;;;5091510;28;20047;-63
2021/11/28 01:35:58;;;;;;;18.05;11.77;;;;;;;;;;5073569;28;20115;-64
2021/11/28 01:38:24;;;;;;;18.33;11.38;;;;;;;;;;5091558;28;20025;-63
2021/11/28 01:40:51;;;;;;;18.63;12.07;;;;;;;;;;5091573;28;20028;-65
2021/11/28 01:43:18;;;;;;;18.05;11.43;;;;;;;;;;5073433;28;20020;-71
2021/11/28 01:45:45;;;;;;;21.55;13.15;;;;;;;;;;5091477;28;20059;-63
2021/11/28 01:48:13;;;;;;;16.27;11.18;;;;;;;;;;5104450;28;20035;-64
2021/11/28 01:50:40;;;;;;;18.38;12.00;;;;;;;;;;5111926;28;20108;-63
2021/11/28 01:53:08;;;;;;;19.30;12.25;;;;;;;;;;5111907;28;20031;-64
2021/11/28 01:55:35;;;;;;;19.00;11.75;;;;;;;;;;5111792;28;20020;-71
2021/11/28 01:58:02;;;;;;;19.40;12.52;;;;;;;;;;5111753;28;20523;-63
2021/11/28 02:00:48;;;;;;;17.52;11.77;;;;;;;;;;5111706;28;20474;-63
2021/11/28 02:03:16;;;;;;;19.05;12.52;;;;;;;;;;5111516;28;20019;-63
2021/11/28 02:05:43;;;;;;;20.08;12.23;;;;;;;;;;5111803;28;20020;-70
2021/11/28 02:08:09;;;;;;;18.50;12.27;;;;;;;;;;5105352;28;20467;-70
2021/11/28 02:10:35;;;;;;;19.08;12.15;;;;;;;;;;5091324;28;20043;-64
2021/11/28 02:13:01;;;;;;;21.17;12.85;;;;;;;;;;5091374;28;20025;-68
2021/11/28 02:15:27;;;;;;;21.73;12.77;;;;;;;;;;5091257;28;20107;-63
2021/11/28 02:17:55;;;;;;;20.48;12.55;;;;;;;;;;5091314;28;20029;-65
2021/11/28 02:20:26;;;;;;;18.95;11.98;;;;;;;;;;5091209;28;20024;-64
2021/11/28 02:22:52;;;;;;;22.88;13.02;;;;;;;;;;5091406;28;20029;-63
2021/11/28 02:25:19;;;;;;;19.23;12.55;;;;;;;;;;5091233;28;20062;-64
2021/11/28 02:27:45;;;;;;;24.42;13.30;;;;;;;;;;5091261;28;20039;-63
2021/11/28 02:30:12;;;;;;;22.00;13.27;;;;;;;;;;5090911;28;20487;-66
2021/11/28 02:32:38;;;;;;;20.42;12.85;;;;;;;;;;5072790;28;20046;-63
2021/11/28 02:35:04;;;;;;;21.58;13.85;;;;;;;;;;5072752;28;20455;-71
2021/11/28 02:37:30;;;;;;;23.02;13.10;;;;;;;;;;5093605;28;20046;-65
2021/11/28 02:39:58;;;;;;;23.60;13.70;;;;;;;;;;5094865;28;20028;-64
2021/11/28 02:42:25;;;;;;;21.25;12.98;;;;;;;;;;5094836;28;20020;-63
2021/11/28 02:44:51;;;;;;;23.65;13.50;;;;;;;;;;5094677;28;20064;-73
2021/11/28 02:47:17;;;;;;;22.00;12.85;;;;;;;;;;5076545;28;20028;-63
2021/11/28 02:49:43;;;;;;;22.02;13.40;;;;;;;;;;5094542;28;20017;-63
2021/11/28 02:52:10;;;;;;;22.83;13.85;;;;;;;;;;5094739;28;20031;-67
2021/11/28 02:54:37;;;;;;;22.08;13.85;;;;;;;;;;5094512;28;20052;-64
2021/11/28 02:57:03;;;;;;;25.77;14.57;;;;;;;;;;5094728;28;20392;-63
2021/11/28 02:59:30;;;;;;;22.90;13.50;;;;;;;;;;5094606;28;20020;-63
2021/11/28 03:01:56;;;;;;;24.15;13.82;;;;;;;;;;5094268;28;20077;-64
2021/11/28 03:04:22;;;;;;;22.58;13.73;;;;;;;;;;5094225;28;20024;-63
2021/11/28 03:06:48;;;;;;;23.52;13.70;;;;;;;;;;5094364;28;20077;-63
2021/11/28 03:09:14;;;;;;;25.73;15.20;;;;;;;;;;5094312;28;20383;-63
2021/11/28 03:11:40;;;;;;;25.52;14.15;;;;;;;;;;5094217;28;20040;-65
2021/11/28 03:14:06;;;;;;;23.45;14.13;;;;;;;;;;5094311;28;20096;-66
2021/11/28 03:16:32;;;;;;;24.02;14.25;;;;;;;;;;5094214;28;20020;-63
2021/11/28 03:18:58;;;;;;;24.45;15.00;;;;;;;;;;5094087;28;20028;-63
2021/11/28 03:21:29;;;;;;;25.88;15.00;;;;;;;;;;5093969;28;20020;-63
2021/11/28 03:23:57;;;;;;;24.13;14.43;;;;;;;;;;5093733;28;20663;-65
2021/11/28 03:26:23;;;;;;;26.58;15.00;;;;;;;;;;5094120;28;20372;-62
2021/11/28 03:28:50;;;;;;;24.00;14.45;;;;;;;;;;5093754;28;20511;-63
2021/11/28 03:31:17;;;;;;;23.50;14.85;;;;;;;;;;5075527;28;20394;-63
2021/11/28 03:33:43;;;;;;;26.27;15.50;;;;;;;;;;5093680;28;20019;-62
2021/11/28 03:36:10;;;;;;;25.20;14.02;;;;;;;;;;5093767;28;20107;-62
2021/11/28 03:38:37;;;;;;;25.10;14.55;;;;;;;;;;5093820;28;20074;-62
2021/11/28 03:41:04;;;;;;;23.70;14.55;;;;;;;;;;5093505;28;20023;-63
2021/11/28 03:43:30;;;;;;;25.42;14.57;;;;;;;;;;5093249;28;20008;-63
2021/11/28 03:45:56;;;;;;;23.15;13.85;;;;;;;;;;5093353;28;20101;-62
2021/11/28 03:48:22;;;;;;;24.48;14.48;;;;;;;;;;5093371;28;20070;-62
2021/11/28 03:50:48;;;;;;;22.10;13.05;;;;;;;;;;5093337;28;20024;-70
2021/11/28 03:53:14;;;;;;;25.73;15.35;;;;;;;;;;5093369;28;20024;-63
2021/11/28 03:55:41;;;;;;;24.27;14.90;;;;;;;;;;5093271;28;20103;-62
2021/11/28 03:58:07;;;;;;;25.38;14.35;;;;;;;;;;5093306;28;20030;-65
2021/11/28 04:00:33;;;;;;;27.58;15.07;;;;;;;;;;5075051;28;20051;-62
2021/11/28 04:03:00;;;;;;;24.25;14.57;;;;;;;;;;5076388;28;20467;-64
2021/11/28 04:05:26;;;;;;;24.00;13.77;;;;;;;;;;5093081;28;20024;-73
2021/11/28 04:07:53;;;;;;;24.80;14.80;;;;;;;;;;5092876;28;20480;-71
2021/11/28 04:10:19;;;;;;;24.95;15.40;;;;;;;;;;5092998;28;20118;-62
2021/11/28 04:12:45;;;;;;;25.27;14.93;;;;;;;;;;5093092;28;20020;-64
2021/11/28 04:15:11;;;;;;;24.63;14.38;;;;;;;;;;5092889;28;20069;-62
2021/11/28 04:17:38;;;;;;;25.50;14.50;;;;;;;;;;5074641;28;20029;-63
2021/11/28 04:20:05;;;;;;;21.92;13.98;;;;;;;;;;5092857;28;20020;-62
2021/11/28 04:22:31;;;;;;;24.35;14.52;;;;;;;;;;5074662;28;20070;-63
2021/11/28 04:24:57;;;;;;;25.13;14.60;;;;;;;;;;5092760;28;20076;-62
2021/11/28 04:27:23;;;;;;;25.65;15.80;;;;;;;;;;5092789;28;20475;-63
2021/11/28 04:29:50;;;;;;;26.77;14.15;;;;;;;;;;5092709;28;20035;-63
2021/11/28 04:32:17;;;;;;;22.38;13.75;;;;;;;;;;5092711;28;20107;-62
2021/11/28 04:34:43;;;;;;;25.33;14.80;;;;;;;;;;5092627;28;20024;-62
2021/11/28 04:37:09;;;;;;;25.17;14.40;;;;;;;;;;5091989;28;20043;-62
2021/11/28 04:39:35;;;;;;;24.13;14.60;;;;;;;;;;5092650;28;20055;-63
2021/11/28 04:42:01;;;;;;;28.73;15.07;;;;;;;;;;5092527;28;20433;-62
2021/11/28 04:44:27;;;;;;;24.98;15.23;;;;;;;;;;5092285;28;20048;-64
2021/11/28 04:46:53;;;;;;;24.88;14.50;;;;;;;;;;5092431;28;20027;-63
2021/11/28 04:49:20;;;;;;;23.02;14.25;;;;;;;;;;5092342;28;20056;-62
2021/11/28 04:51:46;;;;;;;22.08;13.77;;;;;;;;;;5092220;28;20032;-72
2021/11/28 04:54:13;;;;;;;24.75;14.20;;;;;;;;;;5092236;28;20106;-62
2021/11/28 04:56:39;;;;;;;22.17;13.55;;;;;;;;;;5092313;28;20028;-63
2021/11/28 04:59:05;;;;;;;25.27;14.73;;;;;;;;;;5091600;28;20374;-62
2021/11/28 05:01:31;;;;;;;23.23;14.73;;;;;;;;;;5092055;28;20024;-74
2021/11/28 05:03:57;;;;;;;21.58;13.68;;;;;;;;;;5091986;28;20027;-62
2021/11/28 05:06:23;;;;;;;23.00;13.50;;;;;;;;;;5091872;28;20424;-63
2021/11/28 05:08:50;;;;;;;22.90;13.75;;;;;;;;;;5073880;28;20020;-62
2021/11/28 05:11:16;;;;;;;21.60;14.05;;;;;;;;;;5091751;28;20028;-62
2021/11/28 05:13:42;;;;;;;22.58;13.43;;;;;;;;;;5091839;28;20525;-62
2021/11/28 05:16:08;;;;;;;20.50;12.50;;;;;;;;;;5091864;28;20028;-62
2021/11/28 05:18:34;;;;;;;24.73;13.82;;;;;;;;;;5091758;28;20017;-63
2021/11/28 05:21:00;;;;;;;20.48;12.75;;;;;;;;;;5091827;28;20048;-62
2021/11/28 05:23:26;;;;;;;20.80;13.15;;;;;;;;;;5073721;28;20047;-66
2021/11/28 05:25:52;;;;;;;20.90;13.13;;;;;;;;;;5091852;28;20027;-63
2021/11/28 05:28:18;;;;;;;20.38;13.38;;;;;;;;;;5073475;28;20025;-71
2021/11/28 05:30:44;;;;;;;22.65;13.07;;;;;;;;;;5091527;28;20039;-62
2021/11/28 05:33:11;;;;;;;21.50;13.13;;;;;;;;;;5091521;28;20114;-71
2021/11/28 05:35:37;;;;;;;21.45;12.90;;;;;;;;;;5091764;28;20032;-64
2021/11/28 05:38:03;;;;;;;18.75;11.90;;;;;;;;;;5091826;28;20024;-64
2021/11/28 05:40:29;;;;;;;19.75;12.07;;;;;;;;;;5091715;28;20016;-62
2021/11/28 05:42:56;;;;;;;21.80;13.80;;;;;;;;;;5091594;28;20020;-63
2021/11/28 05:45:24;;;;;;;18.83;11.55;;;;;;;;;;5091426;28;20095;-62
2021/11/28 05:47:50;;;;;;;19.40;12.38;;;;;;;;;;5090912;28;20414;-62
2021/11/28 05:50:18;;;;;;;20.30;12.02;;;;;;;;;;5090330;28;20087;-62
2021/11/28 05:52:44;;;;;;;20.65;12.05;;;;;;;;;;5089978;28;20111;-62
2021/11/28 05:55:11;;;;;;;17.80;11.38;;;;;;;;;;5090594;28;20020;-62
2021/11/28 05:57:37;;;;;;;19.23;12.23;;;;;;;;;;5091294;28;20074;-62
2021/11/28 06:00:05;;;;;;;19.85;11.65;;;;;;;;;;5091317;28;20089;-62
2021/11/28 06:02:31;;;;;;;19.95;11.52;;;;;;;;;;5073141;28;20024;-62
2021/11/28 06:04:57;;;;;;;18.73;11.98;;;;;;;;;;5091529;28;20048;-62
2021/11/28 06:07:23;;;;;;;17.83;11.05;;;;;;;;;;5091402;28;20081;-62
2021/11/28 06:09:49;;;;;;;20.40;11.77;;;;;;;;;;5091059;28;20021;-62
2021/11/28 06:12:15;;;;;;;18.83;11.68;;;;;;;;;;5094383;28;20055;-74
2021/11/28 06:14:41;;;;;;;19.42;11.57;;;;;;;;;;5095099;28;20024;-62
2021/11/28 06:17:07;;;;;;;19.65;11.18;;;;;;;;;;5095095;28;20154;-62
2021/11/28 06:19:34;;;;;;;17.73;11.55;;;;;;;;;;5095061;28;20016;-63
2021/11/28 06:22:00;;;;;;;17.90;10.77;;;;;;;;;;5094845;28;20062;-67
2021/11/28 06:24:26;;;;;;;16.98;10.57;;;;;;;;;;5094892;28;20055;-66
2021/11/28 06:26:52;;;;;;;17.77;11.13;;;;;;;;;;5094745;28;20027;-62
2021/11/28 06:29:18;;;;;;;17.77;11.10;;;;;;;;;;5094809;28;20024;-70
2021/11/28 06:31:44;;;;;;;17.50;10.75;;;;;;;;;;5094815;28;20121;-62
2021/11/28 06:34:10;;;;;;;20.27;10.90;;;;;;;;;;5094774;28;20373;-67
2021/11/28 06:36:36;;;;;;;17.65;10.90;;;;;;;;;;5076756;28;20028;-62
2021/11/28 06:39:03;;;;;;;16.88;10.82;;;;;;;;;;5076717;28;20115;-63
2021/11/28 06:41:29;;;;;;;16.60;10.32;;;;;;;;;;5076561;28;20051;-65
2021/11/28 06:43:56;;;;;;;18.35;10.75;;;;;;;;;;5094577;28;20024;-62
2021/11/28 06:46:22;;;;;;;18.40;11.43;;;;;;;;;;5094568;28;20083;-70
2021/11/28 06:48:48;;;;;;;16.50;10.50;;;;;;;;;;5094601;28;20085;-65
2021/11/28 06:51:15;;;;;;;19.00;11.98;;;;;;;;;;5094564;28;20032;-62
2021/11/28 06:53:41;;;;;;;16.55;10.00;;;;;;;;;;5094518;28;20574;-62
2021/11/28 06:56:07;;;;;;;20.13;11.55;;;;;;;;;;5076565;28;20028;-62
2021/11/28 06:58:34;;;;;;;17.63;10.93;;;;;;;;;;5094442;28;20027;-62
2021/11/28 07:01:00;;;;;;;17.00;10.30;;;;;;;;;;5094382;28;20497;-62
2021/11/28 07:03:26;;;;;;;15.55;9.18;;;;;;;;;;5094107;28;20044;-63
2021/11/28 07:05:53;;;;;;;16.83;9.60;;;;;;;;;;5075894;28;20016;-63
2021/11/28 07:08:19;;;;;;;14.98;9.07;;;;;;;;;;5094104;28;20027;-62
2021/11/28 07:10:45;;;;;;;15.38;9.25;;;;;;;;;;5094411;28;20051;-62
2021/11/28 07:13:11;;;;;;;15.13;8.73;;;;;;;;;;5094249;28;20035;-62
2021/11/28 07:15:38;;;;;;;14.45;8.05;;;;;;;;;;5094182;28;20467;-62
2021/11/28 07:18:04;;;;;;;14.18;8.73;;;;;;;;;;5094105;28;20016;-62
2021/11/28 07:20:31;;;;;;;14.00;8.10;;;;;;;;;;5094152;28;20367;-62
2021/11/28 07:22:59;;;;;;;15.75;9.23;;;;;;;;;;5075204;28;20558;-65
2021/11/28 07:25:25;;;;;;;15.13;9.30;;;;;;;;;;5093913;28;20107;-62
2021/11/28 07:27:51;;;;;;;16.30;9.10;;;;;;;;;;5093967;28;20440;-62
2021/11/28 07:30:17;;;;;;;16.20;9.55;;;;;;;;;;5093798;28;20101;-62
2021/11/28 07:32:44;;;;;;;16.85;9.80;;;;;;;;;;5093793;28;20098;-62
2021/11/28 07:35:10;;;;;;;15.52;8.73;;;;;;;;;;5093728;28;20103;-62
2021/11/28 07:37:36;;;;;;;14.13;7.65;;;;;;;;;;5094098;28;20301;-62
2021/11/28 07:40:02;;;;;;;14.40;8.57;;;;;;;;;;5075413;28;20391;-63
2021/11/28 07:42:28;;;;;;;16.20;9.00;;;;;;;;;;5093376;28;20429;-63
2021/11/28 07:44:54;;;;;;;13.68;8.00;;;;;;;;;;5093160;28;20068;-62
2021/11/28 07:47:21;;;;;;;15.18;9.32;;;;;;;;;;5093505;28;20031;-62
2021/11/28 07:49:47;;;;;;;15.00;9.15;;;;;;;;;;5093489;28;20020;-63
2021/11/28 07:52:13;;;;;;;15.55;8.73;;;;;;;;;;5093796;28;20097;-62
2021/11/28 07:54:39;;;;;;;16.02;9.35;;;;;;;;;;5093124;28;20473;-63
2021/11/28 07:57:05;;;;;;;14.02;8.43;;;;;;;;;;5093172;28;20016;-63
2021/11/28 07:59:34;;;;;;;14.15;8.18;;;;;;;;;;5074912;28;20048;-65
2021/11/28 08:02:01;;;;;;;13.27;8.02;;;;;;;;;;5093149;28;20020;-63
2021/11/28 08:04:27;;;;;;;14.07;8.23;;;;;;;;;;5093461;28;20024;-63
2021/11/28 08:06:53;;;;;;;14.65;8.43;;;;;;;;;;5092977;28;20016;-62
2021/11/28 08:09:19;;;;;;;17.08;9.73;;;;;;;;;;5092912;28;20085;-69
2021/11/28 08:11:46;;;;;;;16.95;9.32;;;;;;;;;;5092696;28;20032;-63
2021/11/28 08:14:12;;;;;;;15.60;8.77;;;;;;;;;;5092880;28;20027;-62
2021/11/28 08:16:38;;;;;;;13.93;8.90;;;;;;;;;;5092748;28;20103;-64
2021/11/28 08:19:04;;;;;;;15.38;8.85;;;;;;;;;;5092819;28;20069;-62
2021/11/28 08:21:30;;;;;;;15.02;8.93;;;;;;;;;;5092869;28;20027;-62
2021/11/28 08:23:58;;;;;;;16.55;9.45;;;;;;;;;;5074406;28;20024;-62
2021/11/28 08:26:24;;;;;;;15.50;8.75;;;;;;;;;;5092689;28;20474;-63
2021/11/28 08:28:50;;;;;;;15.98;9.18;;;;;;;;;;5092575;28;20040;-63
2021/11/28 08:31:16;;;;;;;14.60;8.50;;;;;;;;;;5074260;28;20387;-63
2021/11/28 08:33:42;;;;;;;15.60;9.48;;;;;;;;;;5091797;28;20085;-64
2021/11/28 08:36:09;;;;;;;13.27;7.95;;;;;;;;;;5092491;28;20479;-63
2021/11/28 08:38:35;;;;;;;15.05;9.20;;;;;;;;;;5092361;28;20095;-62
2021/11/28 08:41:01;;;;;;;16.25;9.18;;;;;;;;;;5092543;28;20413;-64
2021/11/28 08:43:27;;;;;;;13.95;7.95;;;;;;;;;;5092310;28;20068;-62
2021/11/28 08:45:54;;;;;;;15.93;9.32;;;;;;;;;;5073920;28;20044;-63
2021/11/28 08:48:20;;;;;;;14.90;8.25;;;;;;;;;;5092112;28;20149;-63
2021/11/28 08:50:46;;;;;;;13.95;8.52;;;;;;;;;;5092201;28;20036;-69
2021/11/28 08:53:12;;;;;;;15.23;8.93;;;;;;;;;;5092254;28;20023;-62
2021/11/28 08:55:38;;;;;;;13.73;8.75;;;;;;;;;;5092104;28;20111;-65
2021/11/28 08:58:04;;;;;;;16.77;9.07;;;;;;;;;;5092250;28;20405;-62
2021/11/28 09:00:30;;;;;;;16.88;9.70;;;;;;;;;;5092116;28;20099;-66
2021/11/28 09:02:57;;;;;;;14.60;8.95;;;;;;;;;;5092040;28;20024;-62
2021/11/28 09:05:24;;;;;;;15.90;9.35;;;;;;;;;;5091947;28;20016;-62
2021/11/28 09:07:51;;;;;;;14.80;8.65;;;;;;;;;;5091914;28;20016;-63
2021/11/28 09:10:18;;;;;;;16.83;10.02;;;;;;;;;;5091772;28;20055;-73
2021/11/28 09:12:44;;;;;;;13.82;8.27;;;;;;;;;;5091708;28;20051;-67
2021/11/28 09:15:11;;;;;;;12.68;7.60;;;;;;;;;;5073701;28;20023;-62
2021/11/28 09:17:41;;;;;;;14.93;8.57;;;;;;;;;;5073679;28;20032;-62
2021/11/28 09:20:09;;;;;;;13.82;7.90;;;;;;;;;;5091843;28;20008;-72
2021/11/28 09:25:14;;;;;;;11.23;7.20;;;;;;;;;;5092030;28;20024;-68
2021/11/28 09:27:41;;;;;;;11.75;6.82;;;;;;;;;;5091573;28;20020;-75
2021/11/28 09:30:08;;;;;;;11.65;6.95;;;;;;;;;;5073376;28;20104;-74
2021/11/28 09:32:34;;;;;;;10.07;6.20;;;;;;;;;;5091571;28;20062;-74
2021/11/28 09:35:00;;;;;;;12.45;7.10;;;;;;;;;;5091534;28;20016;-62
2021/11/28 09:37:26;;;;;;;10.30;6.28;;;;;;;;;;5091638;28;20020;-72
2021/11/28 09:39:52;;;;;;;10.77;6.07;;;;;;;;;;5091540;28;20095;-64
2021/11/28 09:42:24;;;;;;;11.15;6.35;;;;;;;;;;5091606;28;20024;-62
2021/11/28 09:44:50;;;;;;;8.98;5.82;;;;;;;;;;5091943;28;20078;-63
2021/11/28 09:47:16;;;;;;;8.25;5.10;;;;;;;;;;5095755;28;20020;-63
2021/11/28 09:49:44;;;;;;;9.35;5.35;;;;;;;;;;5095693;28;20024;-62
2021/11/28 09:52:12;;;;;;;8.95;5.22;;;;;;;;;;5095589;28;20028;-67
2021/11/28 09:54:42;;;;;;;8.95;4.75;;;;;;;;;;5095612;28;20473;-62
2021/11/28 09:57:15;;;;;;;8.13;5.18;;;;;;;;;;5095539;28;20546;-63
2021/11/28 09:59:42;;;;;;;9.27;5.63;;;;;;;;;;5095490;28;20027;-63
2021/11/28 10:02:08;;;;;;;8.60;5.63;;;;;;;;;;5095434;28;20028;-62
2021/11/28 10:04:34;;;;;;;7.63;5.00;;;;;;;;;;5095342;28;20505;-63
2021/11/28 10:07:01;;;;;;;8.82;5.30;;;;;;;;;;5095473;28;20460;-62
2021/11/28 10:09:27;;;;;;;8.23;5.35;;;;;;;;;;5095334;28;20052;-62
2021/11/28 10:11:59;;;;;;;8.55;4.93;;;;;;;;;;5095152;28;20043;-63
2021/11/28 10:14:25;;;;;;;9.57;5.47;;;;;;;;;;5095278;28;20360;-65
2021/11/28 10:16:51;;;;;;;9.70;5.18;;;;;;;;;;5095200;28;20027;-62
2021/11/28 10:19:18;;;;;;;8.93;5.40;;;;;;;;;;5076949;28;20016;-62
2021/11/28 10:21:44;;;;;;;8.05;5.13;;;;;;;;;;5095330;28;20039;-62
2021/11/28 10:24:11;;;;;;;9.73;5.40;;;;;;;;;;5095243;28;20093;-62
2021/11/28 10:26:52;;;;;;;8.68;4.72;;;;;;;;;;5095111;28;20573;-62
2021/11/28 10:29:19;;;;;;;8.98;5.07;;;;;;;;;;5076740;28;20018;-63
2021/11/28 10:31:50;;;;;;;6.55;4.22;;;;;;;;;;5094734;28;20546;-73
2021/11/28 10:34:20;;;;;;;7.18;4.13;;;;;;;;;;5094758;28;20103;-62
2021/11/28 10:36:47;;;;;;;6.72;4.10;;;;;;;;;;5094997;28;20547;-63
2021/11/28 10:39:14;;;;;;;7.13;4.32;;;;;;;;;;5094891;28;20383;-63
2021/11/28 10:41:46;;;;;;;7.90;4.28;;;;;;;;;;5094576;28;20379;-63
2021/11/28 10:44:13;;;;;;;6.40;4.00;;;;;;;;;;5094371;28;20024;-63
2021/11/28 10:46:39;;;;;;;7.55;4.18;;;;;;;;;;5094408;28;20028;-63
2021/11/28 10:49:10;;;;;;;7.25;4.35;;;;;;;;;;5094331;28;20532;-71
2021/11/28 10:51:38;;;;;;;6.20;3.85;;;;;;;;;;5094385;28;20171;-64
2021/11/28 10:54:23;;;;;;;6.22;3.55;;;;;;;;;;5076257;28;20558;-62
2021/11/28 10:56:49;;;;;;;8.45;4.32;;;;;;;;;;5093622;28;20051;-62
2021/11/28 10:59:19;;;;;;;7.40;4.18;;;;;;;;;;5094528;28;20188;-63
2021/11/28 11:01:45;;;;;;;6.53;3.78;;;;;;;;;;5094231;28;20035;-62
2021/11/28 11:04:21;;;;;;;6.90;3.90;;;;;;;;;;5094148;28;20077;-65
2021/11/28 11:07:06;;;;;;;7.32;4.20;;;;;;;;;;5094468;28;20019;-63
2021/11/28 11:09:39;;;;;;;6.25;3.72;;;;;;;;;;5094226;28;20027;-62
2021/11/28 11:12:20;;;;;;;6.22;3.50;;;;;;;;;;5094146;28;20039;-62
2021/11/28 11:14:46;;;;;;;6.15;3.53;;;;;;;;;;5094038;28;20107;-65
2021/11/28 11:17:13;;;;;;;7.25;4.28;;;;;;;;;;5094102;28;20024;-64
2021/11/28 11:19:40;;;;;;;7.20;4.32;;;;;;;;;;5094182;28;20099;-63
2021/11/28 11:22:11;;;;;;;5.60;3.83;;;;;;;;;;5094022;28;20016;-65
2021/11/28 11:24:38;;;;;;;6.70;4.00;;;;;;;;;;5093806;28;20073;-62
2021/11/28 11:27:05;;;;;;;7.05;3.95;;;;;;;;;;5093883;28;20035;-63
2021/11/28 11:29:31;;;;;;;6.53;3.55;;;;;;;;;;5093687;28;20028;-62
2021/11/28 11:31:58;;;;;;;6.28;3.53;;;;;;;;;;5093544;28;20059;-62
2021/11/28 11:34:27;;;;;;;7.38;4.03;;;;;;;;;;5075382;28;20468;-62
2021/11/28 11:36:57;;;;;;;7.53;4.03;;;;;;;;;;5093806;28;20028;-63
2021/11/28 11:39:24;;;;;;;6.72;4.15;;;;;;;;;;5093755;28;20095;-62
2021/11/28 11:41:51;;;;;;;5.95;3.78;;;;;;;;;;5093489;28;20383;-68
2021/11/28 11:44:18;;;;;;;6.50;4.05;;;;;;;;;;5093155;28;20016;-69
2021/11/28 11:46:46;;;;;;;5.88;3.15;;;;;;;;;;5093538;28;20423;-62
2021/11/28 11:49:15;;;;;;;6.68;3.78;;;;;;;;;;5093519;28;20019;-71
2021/11/28 11:51:42;;;;;;;7.50;4.28;;;;;;;;;;5093447;28;20383;-63
2021/11/28 11:54:18;;;;;;;6.18;3.90;;;;;;;;;;5093350;28;20027;-62
2021/11/28 11:56:45;;;;;;;5.82;3.90;;;;;;;;;;5093416;28;20020;-62
2021/11/28 11:59:20;;;;;;;5.50;3.40;;;;;;;;;;5093350;28;20045;-62
2021/11/28 12:01:46;;;;;;;202.32;12.30;;;;;;;;;;5090928;28;20024;-71
2021/11/28 12:04:32;;;;;;;14.50;4.82;;;;;;;;;;5102964;28;20044;-68
2021/11/28 12:06:58;;;;;;;20.25;4.57;;;;;;;;;;5102662;28;20052;-72
2021/11/28 12:09:24;;;;;;;14.98;4.55;;;;;;;;;;5121707;27;20521;-69
2021/11/28 12:12:01;;;;;;;15.15;4.10;;;;;;;;;;5112274;28;20042;-70
2021/11/28 12:14:27;;;;;;;13.88;4.30;;;;;;;;;;5124108;27;20075;-76
2021/11/28 12:16:53;;;;;;;9.77;3.80;;;;;;;;;;5132827;27;20079;-74
2021/11/28 12:19:51;;;;;;;28.50;4.40;;;;;;;;;;5118834;27;20015;-77
2021/11/28 12:22:50;;;;;;;11.45;4.60;;;;;;;;;;5047458;28;20059;-75
2021/11/28 12:25:35;;;;;;;12.50;4.32;;;;;;;;;;5059146;28;20115;-76
2021/11/28 12:28:20;;;;;;;9.27;4.15;;;;;;;;;;5092316;28;20394;-73
2021/11/28 12:30:52;;;;;;;13.18;4.70;;;;;;;;;;5092284;28;20473;-73
2021/11/28 12:33:18;;;;;;;9.05;4.40;;;;;;;;;;5092272;28;20035;-63
2021/11/28 12:35:44;;;;;;;11.32;4.15;;;;;;;;;;5092197;28;20028;-71
2021/11/28 12:38:10;;;;;;;8.00;3.95;;;;;;;;;;5074496;28;20036;-68
2021/11/28 12:40:40;;;;;;;9.60;4.32;;;;;;;;;;5092160;28;20027;-76
2021/11/28 12:43:22;;;;;;;14.88;4.13;;;;;;;;;;5074071;28;20020;-71
2021/11/28 12:45:49;;;;;;;10.05;4.38;;;;;;;;;;5111315;28;20047;-74
2021/11/28 12:48:20;;;;;;;11.20;4.53;;;;;;;;;;5112416;28;20096;-74
2021/11/28 12:50:50;;;;;;;8.52;4.47;;;;;;;;;;5112383;28;20035;-74
2021/11/28 12:53:26;;;;;;;13.82;4.50;;;;;;;;;;5112423;28;20016;-73
2021/11/28 12:56:28;;;;;;;7.90;3.88;;;;;;;;;;5107607;28;20047;-75
2021/11/28 12:59:12;;;;;;;11.35;4.35;;;;;;;;;;5018893;28;20030;-74
2021/11/28 13:01:48;;;;;;;9.15;4.20;;;;;;;;;;5099014;28;20351;-75
2021/11/28 13:04:33;;;;;;;8.88;4.40;;;;;;;;;;5112291;28;20106;-77
2021/11/28 13:07:18;;;;;;;8.75;4.30;;;;;;;;;;5093927;28;20038;-76
2021/11/28 13:09:44;;;;;;;15.90;4.25;;;;;;;;;;5091854;28;20066;-76
2021/11/28 13:12:10;;;;;;;10.02;3.85;;;;;;;;;;5073874;28;20036;-76
2021/11/28 13:14:36;;;;;;;8.60;4.03;;;;;;;;;;5091565;28;20024;-77
2021/11/28 13:17:05;;;;;;;8.35;4.22;;;;;;;;;;5073519;28;20023;-75
2021/11/28 13:19:33;;;;;;;8.15;4.15;;;;;;;;;;5091122;28;20051;-74
2021/11/28 13:21:59;;;;;;;9.60;4.22;;;;;;;;;;5091378;28;20081;-74
2021/11/28 13:24:28;;;;;;;8.68;3.88;;;;;;;;;;5091520;28;20379;-74
2021/11/28 13:26:56;;;;;;;7.70;4.20;;;;;;;;;;5091644;28;20024;-74
2021/11/28 13:29:26;;;;;;;10.40;4.20;;;;;;;;;;5074107;28;20073;-75
2021/11/28 13:31:58;;;;;;;9.00;4.20;;;;;;;;;;5091184;28;20031;-75
2021/11/28 13:34:29;;;;;;;13.52;4.30;;;;;;;;;;5091251;28;20020;-74
2021/11/28 13:36:55;;;;;;;8.82;3.80;;;;;;;;;;5091474;28;20016;-74
2021/11/28 13:39:22;;;;;;;9.90;4.53;;;;;;;;;;5091459;28;20039;-75
2021/11/28 13:41:52;;;;;;;6.75;3.80;;;;;;;;;;5091425;28;20024;-74
2021/11/28 13:44:21;;;;;;;9.95;4.57;;;;;;;;;;5091289;28;20441;-75
2021/11/28 13:46:49;;;;;;;8.57;4.43;;;;;;;;;;5091652;28;20099;-73
2021/11/28 13:49:22;;;;;;;9.32;3.80;;;;;;;;;;5091043;28;20016;-75
2021/11/28 13:51:51;;;;;;;7.30;3.85;;;;;;;;;;5091301;28;20036;-74
2021/11/28 13:54:35;;;;;;;6.57;3.92;;;;;;;;;;5091315;28;20101;-75
2021/11/28 13:57:01;;;;;;;7.38;3.70;;;;;;;;;;5097614;28;20019;-76
2021/11/28 13:59:29;;;;;;;8.50;4.00;;;;;;;;;;5095535;28;20023;-75
2021/11/28 14:02:09;;;;;;;7.63;3.85;;;;;;;;;;5090315;28;20103;-74
2021/11/28 14:04:35;;;;;;;7.70;4.03;;;;;;;;;;5087824;28;20028;-72
2021/11/28 14:07:02;;;;;;;7.00;4.20;;;;;;;;;;5110967;28;20257;-76
2021/11/28 14:09:29;;;;;;;6.43;4.03;;;;;;;;;;5110779;28;20070;-75
2021/11/28 14:11:55;;;;;;;7.53;4.45;;;;;;;;;;5110530;28;20047;-74
2021/11/28 14:14:22;;;;;;;8.45;4.03;;;;;;;;;;5110660;28;20068;-76
2021/11/28 14:16:51;;;;;;;7.00;4.00;;;;;;;;;;5110387;28;20032;-74
2021/11/28 14:19:35;;;;;;;6.05;3.88;;;;;;;;;;5110797;28;20011;-75
2021/11/28 14:22:01;;;;;;;6.07;3.80;;;;;;;;;;5072376;28;20028;-74
2021/11/28 14:24:27;;;;;;;9.40;4.38;;;;;;;;;;5089965;28;20024;-74
2021/11/28 14:26:53;;;;;;;7.20;4.13;;;;;;;;;;5090125;28;20638;-75
2021/11/28 14:29:26;;;;;;;7.82;4.22;;;;;;;;;;5071700;28;20374;-75
2021/11/28 14:31:59;;;;;;;6.50;3.90;;;;;;;;;;5090438;28;20103;-75
2021/11/28 14:34:26;;;;;;;7.03;4.60;;;;;;;;;;5093930;28;20540;-74
2021/11/28 14:36:53;;;;;;;6.32;3.92;;;;;;;;;;5094447;28;20031;-73
2021/11/28 14:39:32;;;;;;;7.43;4.68;;;;;;;;;;5093857;28;20016;-74